CheckWX is a tool to help pilots better visualize weather data.  It is not intended as a substitute for an official pre-flight weather briefing.

00:08:13 UTC

KGBG METAR
Galesburg Municipal Airport
Galesburg, Illinois, USA
Current

33 mins ago

KGBG 222335Z AUTO 10007KT 10SM BKN041 OVC047 01/M05 A3006 RMK AO2 T00051054
Observed
Jan-22 @ 23:35 UTC
Wind
  • 100° at 7 KTS
Visibility
10 SM
Flight Rules
VFR
Cloud Levels
  • Broken at 4,100' AGL
  • Overcast at 4,700' AGL
Temperature
C / 34°F
Dewpoint
-5°C / 23°F
Humidity
65%
Altimeter
30.06" Hg
Pressure
1017.92 hPa
Previous

53 mins ago

KGBG 222315Z AUTO 11006KT 10SM OVC048 00/M05 A3006 RMK AO2 T00031051
Observed
Jan-22 @ 23:15 UTC
Wind
  • 110° at 6 KTS
Visibility
10 SM
Flight Rules
VFR
Cloud Levels
  • Overcast at 4,800' AGL
Temperature
C / 32°F
Dewpoint
-5°C / 23°F
Humidity
69%
Altimeter
30.06" Hg
Pressure
1017.92 hPa
Previous

1 hour ago

KGBG 222255Z AUTO 11006KT 10SM SCT050 BKN085 OVC120 01/M05 A3006 RMK AO2 T00051055
Observed
Jan-22 @ 22:55 UTC
Wind
  • 110° at 6 KTS
Visibility
10 SM
Flight Rules
VFR
Cloud Levels
  • Scattered at 5,000' AGL
  • Broken at 8,500' AGL
  • Overcast at 12,000' AGL
Temperature
C / 34°F
Dewpoint
-6°C / 21°F
Humidity
60%
Altimeter
30.06" Hg
Pressure
1017.92 hPa